Time;durP1;ratioP1;P1;durP2;ratioP2;P2;SDS_P1;SDS_P2;PMS_P1;PMS_P2;Temp;Humidity;BMP_temperature;BMP_pressure;BME280_temperature;BME280_humidity;BME280_pressure;Samples;Min_cycle;Max_cycle;Signal;HPM_P1;HPM_P2
2021/04/10 00:02:14;;;;;;;24.33;21.83;;;;;;;9.38;100.00;100218.50;5033800;28;20954;-75
2021/04/10 00:05:03;;;;;;;24.90;22.50;;;;;;;9.36;100.00;100210.00;5033337;28;20801;-75
2021/04/10 00:07:50;;;;;;;25.50;22.80;;;;;;;9.36;100.00;100220.34;5032663;28;20972;-75
2021/04/10 00:10:37;;;;;;;25.13;22.47;;;;;;;9.31;100.00;100214.63;5031330;28;20507;-75
2021/04/10 00:13:24;;;;;;;25.40;22.87;;;;;;;9.29;100.00;100211.34;5033102;28;20441;-75
2021/04/10 00:16:12;;;;;;;25.10;22.40;;;;;;;9.29;100.00;100200.13;5032742;28;20445;-74
2021/04/10 00:18:58;;;;;;;24.43;21.80;;;;;;;9.28;100.00;100204.47;5050446;28;20460;-75
2021/04/10 00:21:45;;;;;;;25.47;22.70;;;;;;;9.29;100.00;100208.75;5037641;28;20445;-75
2021/04/10 00:24:32;;;;;;;26.73;23.83;;;;;;;9.31;100.00;100209.47;5033009;28;20475;-75
2021/04/10 00:27:19;;;;;;;26.20;23.40;;;;;;;9.29;100.00;100206.16;5032910;28;20479;-74
2021/04/10 00:30:08;;;;;;;27.23;23.37;;;;;;;9.30;100.00;100209.53;5032166;28;20830;-75
2021/04/10 00:32:56;;;;;;;25.90;23.17;;;;;;;9.27;100.00;100204.56;5047513;28;20820;-75
2021/04/10 00:35:43;;;;;;;25.67;22.27;;;;;;;9.25;100.00;100209.00;5051979;28;20433;-75
2021/04/10 00:38:31;;;;;;;24.67;22.17;;;;;;;9.25;100.00;100209.84;5051831;28;20502;-75
2021/04/10 00:41:18;;;;;;;26.70;22.83;;;;;;;9.25;100.00;100212.44;5046898;28;21003;-75
2021/04/10 00:44:05;;;;;;;26.40;23.60;;;;;;;9.24;100.00;100212.50;5052106;28;21016;-75
2021/04/10 00:46:52;;;;;;;25.83;22.67;;;;;;;9.23;100.00;100209.13;5051995;28;20552;-75
2021/04/10 00:49:40;;;;;;;25.90;23.30;;;;;;;9.22;100.00;100214.38;5052598;28;20500;-75
2021/04/10 00:52:28;;;;;;;28.53;23.90;;;;;;;9.17;100.00;100206.91;5052484;28;20505;-75
2021/04/10 00:55:15;;;;;;;26.50;23.70;;;;;;;9.15;100.00;100206.16;5043133;28;20524;-75
2021/04/10 00:58:03;;;;;;;26.57;23.67;;;;;;;9.14;100.00;100209.66;5035221;28;20465;-76
2021/04/10 01:00:49;;;;;;;27.40;24.70;;;;;;;9.14;100.00;100208.84;5045808;28;20452;-75
2021/04/10 01:03:37;;;;;;;26.67;23.83;;;;;;;9.08;100.00;100207.47;5045421;28;20441;-75
2021/04/10 01:06:25;;;;;;;24.97;22.30;;;;;;;9.06;100.00;100209.31;5035607;28;20449;-75
2021/04/10 01:09:12;;;;;;;26.27;23.30;;;;;;;9.07;100.00;100208.38;5042900;28;20872;-75
2021/04/10 01:12:09;;;;;;;28.13;25.17;;;;;;;9.06;100.00;100213.69;5054363;28;20843;-75
2021/04/10 01:15:05;;;;;;;28.63;25.27;;;;;;;9.05;100.00;100218.03;5055262;28;20528;-75
2021/04/10 01:17:55;;;;;;;28.33;24.77;;;;;;;9.06;100.00;100221.44;5055174;28;20967;-75
2021/04/10 01:20:54;;;;;;;29.40;24.40;;;;;;;9.04;100.00;100210.34;5053888;28;20863;-74
2021/04/10 01:24:04;;;;;;;25.20;22.57;;;;;;;9.05;100.00;100197.31;5055543;28;20464;-74
2021/04/10 01:27:02;;;;;;;30.17;25.37;;;;;;;9.03;100.00;100199.16;5054857;28;20448;-75
2021/04/10 01:29:52;;;;;;;29.10;26.00;;;;;;;9.02;100.00;100207.84;5053514;28;20549;-75
2021/04/10 01:32:46;;;;;;;29.10;26.00;;;;;;;9.01;100.00;100209.59;5055366;28;20453;-75
2021/04/10 01:35:36;;;;;;;26.53;23.60;;;;;;;9.03;100.00;100212.09;5054080;28;20619;-75
2021/04/10 01:38:27;;;;;;;26.70;23.87;;;;;;;9.01;100.00;100208.75;5037543;28;20878;-74
2021/04/10 01:41:16;;;;;;;27.90;24.97;;;;;;;9.01;100.00;100212.19;5037560;28;20529;-75
2021/04/10 01:44:05;;;;;;;31.70;25.30;;;;;;;8.99;100.00;100213.22;5033579;28;20491;-75
2021/04/10 01:46:54;;;;;;;28.43;25.40;;;;;;;8.97;100.00;100210.72;5034421;28;20445;-74
2021/04/10 01:49:42;;;;;;;29.83;26.63;;;;;;;8.99;100.00;100216.63;5033704;28;20461;-75
2021/04/10 01:52:30;;;;;;;30.93;27.10;;;;;;;8.97;100.00;100225.41;5053180;28;21150;-74
2021/04/10 01:55:17;;;;;;;33.37;26.97;;;;;;;8.96;100.00;100219.41;5054197;28;20445;-75
2021/04/10 01:58:06;;;;;;;30.17;26.33;;;;;;;8.94;100.00;100218.66;5052238;28;20445;-74
2021/04/10 02:00:54;;;;;;;30.37;27.17;;;;;;;8.94;100.00;100208.28;5053443;28;20460;-74
2021/04/10 02:03:44;;;;;;;31.30;28.10;;;;;;;8.91;100.00;100205.91;5053727;28;20448;-74
2021/04/10 02:06:32;;;;;;;31.87;28.57;;;;;;;8.89;100.00;100212.91;5035295;28;20525;-75
2021/04/10 02:09:21;;;;;;;31.20;27.70;;;;;;;8.89;100.00;100212.91;5033038;28;20563;-75
2021/04/10 02:12:09;;;;;;;31.07;27.87;;;;;;;8.89;100.00;100207.75;5033999;28;20449;-74
2021/04/10 02:14:58;;;;;;;35.03;28.30;;;;;;;8.88;100.00;100221.59;5034100;28;20443;-75
2021/04/10 02:17:45;;;;;;;30.07;26.87;;;;;;;8.89;100.00;100222.44;5034199;28;20445;-74
2021/04/10 02:20:33;;;;;;;33.77;28.37;;;;;;;8.89;100.00;100223.28;5049756;28;20456;-74
2021/04/10 02:23:20;;;;;;;34.90;29.67;;;;;;;8.91;100.00;100212.84;5053189;28;20440;-74
2021/04/10 02:26:07;;;;;;;33.00;27.97;;;;;;;8.91;100.00;100218.84;5052711;28;20797;-74
2021/04/10 02:28:56;;;;;;;33.47;28.37;;;;;;;8.91;100.00;100215.44;5052923;28;20911;-75
2021/04/10 02:31:48;;;;;;;35.70;29.77;;;;;;;8.95;100.00;100219.47;5054670;28;20467;-74
2021/04/10 02:34:42;;;;;;;33.97;30.37;;;;;;;8.98;100.00;100214.13;5037591;28;20807;-74
2021/04/10 02:37:32;;;;;;;34.47;29.83;;;;;;;8.97;100.00;100213.31;5032505;28;20588;-74
2021/04/10 02:40:21;;;;;;;34.30;30.63;;;;;;;8.99;100.00;100211.47;5032706;28;20523;-74
2021/04/10 02:43:09;;;;;;;33.67;30.00;;;;;;;9.03;100.00;100212.09;5033494;28;20502;-74
2021/04/10 02:46:00;;;;;;;38.23;30.77;;;;;;;9.04;100.00;100211.16;5032463;28;20950;-74
2021/04/10 02:48:54;;;;;;;42.17;32.60;;;;;;;9.06;100.00;100222.25;5047549;28;20479;-75
2021/04/10 02:51:43;;;;;;;38.20;31.70;;;;;;;9.07;100.00;100220.50;5052450;28;20491;-75
2021/04/10 02:54:35;;;;;;;38.17;31.23;;;;;;;9.02;100.00;100224.19;5051850;28;20440;-74
2021/04/10 02:57:24;;;;;;;41.07;32.00;;;;;;;8.99;100.00;100233.91;5050662;28;20468;-74
2021/04/10 03:00:16;;;;;;;36.67;30.73;;;;;;;8.99;100.00;100218.38;5052106;28;20980;-75
2021/04/10 03:03:04;;;;;;;37.83;32.23;;;;;;;8.98;100.00;100221.91;5052847;28;20810;-75
2021/04/10 03:05:53;;;;;;;36.77;31.87;;;;;;;8.95;100.00;100233.25;5052457;28;20452;-74
2021/04/10 03:08:41;;;;;;;35.23;31.33;;;;;;;8.94;100.00;100230.75;5052305;28;20562;-75
2021/04/10 03:11:29;;;;;;;35.73;31.27;;;;;;;8.88;100.00;100231.13;5041007;28;20477;-75
2021/04/10 03:14:17;;;;;;;37.43;31.10;;;;;;;8.81;100.00;100229.84;5033657;28;20453;-74
2021/04/10 03:17:05;;;;;;;39.93;32.20;;;;;;;8.76;100.00;100235.28;5032750;28;20461;-75
2021/04/10 03:19:53;;;;;;;43.17;33.53;;;;;;;8.74;100.00;100236.31;5055326;28;21030;-75
2021/04/10 03:22:42;;;;;;;44.23;32.83;;;;;;;8.71;100.00;100232.13;5073089;28;20939;-74
2021/04/10 03:25:29;;;;;;;44.17;33.17;;;;;;;8.69;100.00;100241.75;5043963;28;20438;-74
2021/04/10 03:28:17;;;;;;;45.43;34.40;;;;;;;8.69;100.00;100244.34;5032179;28;20465;-74
2021/04/10 03:31:05;;;;;;;39.93;32.10;;;;;;;8.70;100.00;100243.41;5033218;28;20811;-75
2021/04/10 03:33:52;;;;;;;43.63;34.57;;;;;;;8.70;100.00;100246.00;5040336;28;20466;-75
2021/04/10 03:36:39;;;;;;;40.60;32.30;;;;;;;8.71;100.00;100254.59;5052355;28;20991;-75
2021/04/10 03:39:29;;;;;;;44.67;35.67;;;;;;;8.70;100.00;100247.78;5051382;28;20456;-75
2021/04/10 03:42:22;;;;;;;38.30;33.67;;;;;;;8.70;100.00;100260.72;5052640;28;20432;-74
2021/04/10 03:45:12;;;;;;;41.03;33.03;;;;;;;8.70;100.00;100248.56;5052155;28;20536;-75
2021/04/10 03:47:59;;;;;;;39.57;32.63;;;;;;;8.70;100.00;100255.53;5042830;28;20524;-75
2021/04/10 03:50:46;;;;;;;43.47;33.40;;;;;;;8.69;100.00;100259.88;5031623;28;20476;-74
2021/04/10 03:53:33;;;;;;;39.73;34.27;;;;;;;8.71;100.00;100259.75;5032153;28;20466;-74
2021/04/10 03:56:20;;;;;;;41.07;31.97;;;;;;;8.70;100.00;100261.50;5032281;28;20448;-74
2021/04/10 03:59:07;;;;;;;42.90;34.10;;;;;;;8.70;100.00;100255.53;5031455;28;20511;-74
2021/04/10 04:01:54;;;;;;;45.63;33.80;;;;;;;8.71;100.00;100265.75;5038233;28;20444;-74
2021/04/10 04:04:41;;;;;;;46.60;35.30;;;;;;;8.73;100.00;100269.09;5051178;28;20444;-73
2021/04/10 04:07:30;;;;;;;41.20;33.47;;;;;;;8.73;100.00;100260.50;5052383;28;20504;-74
2021/04/10 04:10:18;;;;;;;45.87;35.20;;;;;;;8.72;100.00;100258.84;5050424;28;20473;-75
2021/04/10 04:13:04;;;;;;;48.00;37.30;;;;;;;8.73;100.00;100260.50;5052047;28;20448;-75
2021/04/10 04:15:51;;;;;;;43.67;34.33;;;;;;;8.72;100.00;100264.84;5046534;28;20496;-75
2021/04/10 04:18:39;;;;;;;44.33;34.83;;;;;;;8.72;100.00;100271.78;5031193;28;20453;-75
2021/04/10 04:21:26;;;;;;;46.00;35.13;;;;;;;8.74;100.00;100275.13;5032169;28;20971;-74
2021/04/10 04:24:13;;;;;;;45.77;34.93;;;;;;;8.73;100.00;100276.03;5031747;28;20449;-75
2021/04/10 04:27:00;;;;;;;43.00;34.97;;;;;;;8.74;100.00;100277.69;5050196;28;20512;-74
2021/04/10 04:29:47;;;;;;;41.67;34.30;;;;;;;8.75;100.00;100276.78;5051035;28;20464;-75
2021/04/10 04:32:34;;;;;;;40.30;33.03;;;;;;;8.74;100.00;100283.72;5055965;28;20444;-74
2021/04/10 04:35:22;;;;;;;47.77;36.20;;;;;;;8.77;100.00;100282.69;5057001;28;20455;-75
2021/04/10 04:38:09;;;;;;;44.57;34.60;;;;;;;8.76;100.00;100287.03;5053900;28;20453;-75
2021/04/10 04:40:56;;;;;;;42.80;33.33;;;;;;;8.76;100.00;100284.44;5051323;28;20440;-74
2021/04/10 04:43:43;;;;;;;47.50;38.30;;;;;;;8.74;100.00;100286.31;5055633;28;20469;-75
2021/04/10 04:46:30;;;;;;;46.67;36.40;;;;;;;8.73;100.00;100283.78;5055604;28;20455;-74
2021/04/10 04:49:17;;;;;;;45.87;36.13;;;;;;;8.67;100.00;100287.56;5054099;28;20836;-74
2021/04/10 04:52:05;;;;;;;40.70;32.20;;;;;;;8.69;100.00;100285.75;5054765;28;20539;-74
2021/04/10 04:54:52;;;;;;;45.00;35.47;;;;;;;8.71;100.00;100294.22;5035681;28;20476;-74
2021/04/10 04:57:39;;;;;;;40.60;33.40;;;;;;;8.72;100.00;100285.53;5034450;28;20537;-75
2021/04/10 05:00:26;;;;;;;41.43;34.40;;;;;;;8.74;100.00;100293.22;5035098;28;20503;-75
2021/04/10 05:03:13;;;;;;;41.40;33.77;;;;;;;8.77;100.00;100298.19;5035351;28;20792;-74
2021/04/10 05:06:00;;;;;;;42.00;34.10;;;;;;;8.78;100.00;100292.13;5034810;28;20532;-75
2021/04/10 05:08:48;;;;;;;42.47;33.47;;;;;;;8.78;100.00;100294.69;5034742;28;20469;-74
2021/04/10 05:11:35;;;;;;;41.23;31.80;;;;;;;8.82;100.00;100299.59;5057430;28;20459;-74
2021/04/10 05:14:22;;;;;;;42.93;34.27;;;;;;;8.83;100.00;100300.44;5059933;28;20456;-74
2021/04/10 05:17:09;;;;;;;41.60;34.10;;;;;;;8.81;100.00;100307.47;5061463;28;20542;-74
2021/04/10 05:19:56;;;;;;;42.67;33.70;;;;;;;8.81;100.00;100307.47;5064214;28;20467;-74
2021/04/10 05:22:43;;;;;;;43.20;33.90;;;;;;;8.81;100.00;100312.66;5058790;28;20491;-74
2021/04/10 05:25:31;;;;;;;41.07;32.90;;;;;;;8.83;100.00;100309.03;5042740;28;20535;-74
2021/04/10 05:28:18;;;;;;;44.30;33.90;;;;;;;8.81;100.00;100305.72;5052762;28;20479;-74
2021/04/10 05:31:05;;;;;;;43.00;34.87;;;;;;;8.84;100.00;100318.47;5035347;28;20441;-74
2021/04/10 05:33:52;;;;;;;45.80;33.53;;;;;;;8.84;100.00;100312.44;5034911;28;20524;-74
2021/04/10 05:36:39;;;;;;;44.10;33.30;;;;;;;8.84;100.00;100318.47;5034617;28;20524;-75
2021/04/10 05:39:25;;;;;;;45.57;33.67;;;;;;;8.83;100.00;100321.97;5034293;28;20461;-75
2021/04/10 05:42:13;;;;;;;42.77;32.10;;;;;;;8.86;100.00;100326.16;5052000;28;20534;-74
2021/04/10 05:45:00;;;;;;;49.63;33.80;;;;;;;8.87;100.00;100333.00;5053925;28;20886;-75
2021/04/10 05:47:47;;;;;;;43.20;32.43;;;;;;;8.90;100.00;100325.88;5053744;28;20488;-75
2021/04/10 05:50:34;;;;;;;41.17;33.47;;;;;;;8.94;100.00;100329.09;5052761;28;20583;-74
2021/04/10 05:53:22;;;;;;;42.43;31.87;;;;;;;8.97;100.00;100323.75;5053802;28;20445;-74
2021/04/10 05:56:09;;;;;;;42.73;32.37;;;;;;;9.06;100.00;100318.03;5053332;28;20488;-75
2021/04/10 05:58:57;;;;;;;39.73;30.73;;;;;;;9.12;100.00;100330.59;5033661;28;20928;-75
2021/04/10 06:01:44;;;;;;;41.60;32.70;;;;;;;9.15;100.00;100335.63;5035595;28;20953;-74
2021/04/10 06:04:30;;;;;;;36.33;31.50;;;;;;;9.21;100.00;100339.59;5052147;28;20441;-75
2021/04/10 06:07:17;;;;;;;40.00;32.70;;;;;;;9.23;100.00;100342.94;5053656;28;20444;-75
2021/04/10 06:10:06;;;;;;;43.93;33.10;;;;;;;9.25;100.00;100344.47;5052093;28;20464;-74
2021/04/10 06:12:53;;;;;;;40.73;30.83;;;;;;;9.27;100.00;100347.00;5052856;28;20441;-74
2021/04/10 06:15:40;;;;;;;38.80;31.73;;;;;;;9.33;100.00;100346.63;5053049;28;20459;-75
2021/04/10 06:18:27;;;;;;;44.10;32.50;;;;;;;9.44;100.00;100346.81;5052365;28;21189;-76
2021/04/10 06:21:14;;;;;;;39.60;30.83;;;;;;;9.55;100.00;100351.31;5053591;28;20444;-75
2021/04/10 06:24:01;;;;;;;37.87;31.47;;;;;;;9.58;100.00;100354.59;5053930;28;20444;-75
2021/04/10 06:26:48;;;;;;;41.73;30.27;;;;;;;9.66;100.00;100356.69;5054072;28;20433;-74
2021/04/10 06:29:35;;;;;;;38.17;31.40;;;;;;;9.73;100.00;100355.38;5054362;28;20477;-74
2021/04/10 06:32:22;;;;;;;37.20;31.70;;;;;;;9.81;100.00;100353.16;5055096;28;20476;-75
2021/04/10 06:35:10;;;;;;;38.83;32.47;;;;;;;9.85;100.00;100359.81;5053432;28;20815;-75
2021/04/10 06:37:57;;;;;;;39.43;31.47;;;;;;;9.89;100.00;100357.88;5052027;28;20911;-75
2021/04/10 06:40:44;;;;;;;38.07;31.60;;;;;;;9.92;100.00;100361.09;5068552;28;20555;-75
2021/04/10 06:43:31;;;;;;;39.43;33.23;;;;;;;9.95;100.00;100355.72;5053515;28;20579;-74
2021/04/10 06:46:18;;;;;;;39.70;30.80;;;;;;;9.98;100.00;100354.69;5052306;28;20933;-74
2021/04/10 06:49:09;;;;;;;39.10;31.23;;;;;;;10.10;100.00;100353.94;5051696;28;20504;-75
2021/04/10 06:51:57;;;;;;;41.27;33.20;;;;;;;10.22;100.00;100356.59;5058109;28;20448;-75
2021/04/10 06:54:47;;;;;;;38.90;31.73;;;;;;;10.31;100.00;100359.56;5064764;28;20881;-76
2021/04/10 06:57:40;;;;;;;40.33;30.80;;;;;;;10.42;100.00;100359.69;5069342;28;20467;-76
2021/04/10 07:00:28;;;;;;;34.73;28.80;;;;;;;10.57;100.00;100364.72;5068108;28;20491;-75
2021/04/10 07:03:15;;;;;;;38.30;31.37;;;;;;;10.70;100.00;100358.72;5052409;28;20568;-75
2021/04/10 07:06:04;;;;;;;39.40;32.00;;;;;;;10.77;100.00;100363.44;5058696;28;20441;-75
2021/04/10 07:08:52;;;;;;;37.70;29.77;;;;;;;10.89;100.00;100366.97;5053049;28;20477;-75
2021/04/10 07:11:39;;;;;;;37.30;30.50;;;;;;;11.02;100.00;100371.22;5033369;28;20460;-75
2021/04/10 07:14:26;;;;;;;38.03;30.10;;;;;;;11.17;100.00;100371.16;5044041;28;20457;-75
2021/04/10 07:17:14;;;;;;;38.17;31.83;;;;;;;11.26;100.00;100373.94;5052568;28;20471;-75
2021/04/10 07:20:22;;;;;;;37.10;29.50;;;;;;;11.46;100.00;100381.22;5052022;28;20560;-75
2021/04/10 07:23:12;;;;;;;38.77;30.73;;;;;;;11.68;100.00;100383.16;5051536;28;20838;-75
2021/04/10 07:25:59;;;;;;;33.93;29.80;;;;;;;11.88;100.00;100388.78;5032176;28;20545;-75
2021/04/10 07:28:47;;;;;;;33.70;29.07;;;;;;;12.03;100.00;100390.34;5040774;28;20518;-75
2021/04/10 07:31:33;;;;;;;36.83;30.90;;;;;;;12.17;100.00;100390.16;5052552;28;21151;-75
2021/04/10 07:34:21;;;;;;;35.17;29.20;;;;;;;12.31;100.00;100384.81;5051831;28;20441;-75
2021/04/10 07:37:08;;;;;;;33.70;28.70;;;;;;;12.49;100.00;100385.25;5049363;28;20439;-75
2021/04/10 07:39:56;;;;;;;35.97;28.70;;;;;;;12.67;100.00;100386.53;5050522;28;20990;-76
2021/04/10 07:42:44;;;;;;;30.10;26.80;;;;;;;12.81;100.00;100388.91;5063155;28;20525;-75
2021/04/10 07:45:33;;;;;;;30.63;27.33;;;;;;;12.96;100.00;100394.78;5065151;28;20449;-75
2021/04/10 07:48:21;;;;;;;29.80;26.77;;;;;;;13.02;100.00;100387.34;5055688;28;20456;-75
2021/04/10 07:51:15;;;;;;;29.73;26.53;;;;;;;13.05;100.00;100389.72;5051324;28;20472;-75
2021/04/10 07:54:21;;;;;;;30.57;26.13;;;;;;;13.02;100.00;100391.72;5049379;28;20542;-75
2021/04/10 07:57:11;;;;;;;24.90;22.20;;;;;;;12.98;98.65;100395.50;5051758;28;20482;-75
2021/04/10 07:59:59;;;;;;;27.50;24.17;;;;;;;12.95;97.03;100388.75;5050290;28;20457;-75
2021/04/10 08:02:46;;;;;;;27.50;24.70;;;;;;;13.02;97.44;100391.72;5047727;28;20438;-75
2021/04/10 08:05:33;;;;;;;27.83;24.70;;;;;;;13.09;96.96;100387.72;5050662;28;20444;-75
2021/04/10 08:08:25;;;;;;;27.00;24.20;;;;;;;13.17;96.59;100389.78;5050780;28;20468;-75
2021/04/10 08:11:12;;;;;;;27.00;23.57;;;;;;;13.26;96.56;100402.94;5050936;28;20797;-75
2021/04/10 08:14:02;;;;;;;26.60;23.80;;;;;;;13.40;97.27;100400.13;5050461;28;20476;-75
2021/04/10 08:16:51;;;;;;;25.80;23.10;;;;;;;13.58;96.15;100397.06;5049579;28;20482;-75
2021/04/10 08:19:39;;;;;;;26.43;23.73;;;;;;;13.68;93.46;100403.22;5050477;28;20531;-75
2021/04/10 08:22:26;;;;;;;26.80;23.97;;;;;;;13.69;92.75;100410.94;5051643;28;20832;-75
2021/04/10 08:25:13;;;;;;;26.10;23.50;;;;;;;13.72;91.46;100415.06;5045980;28;20440;-75
2021/04/10 08:28:00;;;;;;;25.63;23.10;;;;;;;13.77;91.45;100412.94;5051598;28;20502;-75
2021/04/10 08:30:48;;;;;;;25.63;23.13;;;;;;;13.68;92.03;100416.25;5049718;28;20878;-75
2021/04/10 08:33:36;;;;;;;24.40;22.00;;;;;;;13.60;92.45;100411.63;5062405;23;20962;-72
2021/04/10 08:36:23;;;;;;;24.97;22.43;;;;;;;13.38;92.96;100411.63;5051752;28;20483;-72
2021/04/10 08:39:11;;;;;;;25.13;22.63;;;;;;;13.19;94.18;100419.97;5050345;28;20437;-72
2021/04/10 08:41:59;;;;;;;24.43;21.90;;;;;;;13.16;93.47;100416.78;5051421;28;20437;-73
2021/04/10 08:44:47;;;;;;;25.47;22.87;;;;;;;13.25;93.89;100416.91;5051727;28;20441;-73
2021/04/10 08:47:37;;;;;;;22.57;20.27;;;;;;;13.40;93.10;100420.16;5051022;28;20440;-72
2021/04/10 08:50:24;;;;;;;24.10;21.70;;;;;;;13.39;92.95;100414.13;5050270;28;20571;-72
2021/04/10 08:53:18;;;;;;;21.47;19.20;;;;;;;13.38;92.64;100414.22;5050616;28;20468;-72
2021/04/10 08:56:07;;;;;;;20.63;18.63;;;;;;;13.40;92.11;100413.16;5051010;28;20441;-72
2021/04/10 08:59:09;;;;;;;20.03;18.00;;;;;;;13.47;91.87;100416.94;5030140;28;20453;-73
2021/04/10 09:02:07;;;;;;;20.50;18.50;;;;;;;13.62;92.31;100412.34;5035991;28;20800;-73
2021/04/10 09:05:13;;;;;;;19.90;18.00;;;;;;;13.65;92.41;100413.88;5051601;28;20955;-72
2021/04/10 09:08:00;;;;;;;18.97;17.27;;;;;;;13.60;92.18;100409.03;5050373;28;20468;-73
2021/04/10 09:10:56;;;;;;;19.90;17.90;;;;;;;13.78;91.67;100415.44;5050558;28;20451;-73
2021/04/10 09:13:45;;;;;;;19.40;17.50;;;;;;;13.95;90.55;100414.13;5049862;28;20460;-73
2021/04/10 09:16:37;;;;;;;15.67;14.17;;;;;;;13.98;89.06;100413.06;5040709;28;20447;-73
2021/04/10 09:19:26;;;;;;;14.40;13.10;;;;;;;14.12;86.68;100416.22;5053923;28;20836;-73
2021/04/10 09:22:18;;;;;;;16.03;14.53;;;;;;;14.18;86.06;100410.50;5054397;28;20442;-73
2021/04/10 09:25:06;;;;;;;16.03;14.53;;;;;;;14.35;86.93;100416.19;5055067;28;20801;-74
2021/04/10 09:28:04;;;;;;;15.77;14.10;;;;;;;14.48;86.79;100416.91;5054135;28;20527;-73
2021/04/10 09:30:51;;;;;;;16.00;14.50;;;;;;;14.74;87.50;100410.41;5053290;28;20444;-73
2021/04/10 09:33:38;;;;;;;16.50;14.70;;;;;;;15.08;86.11;100418.91;5053854;28;21001;-72
2021/04/10 09:36:46;;;;;;;15.10;13.73;;;;;;;15.40;83.76;100416.22;5054217;28;20441;-73
2021/04/10 09:39:54;;;;;;;14.90;13.60;;;;;;;15.58;82.37;100417.31;5053155;28;20443;-73
2021/04/10 09:42:47;;;;;;;15.60;14.20;;;;;;;15.82;81.68;100414.38;5045397;28;20468;-73
2021/04/10 09:45:35;;;;;;;14.20;12.90;;;;;;;16.07;78.35;100419.16;5054001;28;20448;-73
2021/04/10 09:48:46;;;;;;;15.20;13.80;;;;;;;16.11;76.87;100414.47;5053729;28;20465;-73
2021/04/10 09:51:39;;;;;;;13.80;12.60;;;;;;;15.92;76.46;100415.25;5044393;28;20445;-72
2021/04/10 09:54:28;;;;;;;14.20;12.80;;;;;;;15.71;77.01;100414.47;5052383;28;20536;-72
2021/04/10 09:57:17;;;;;;;14.87;13.57;;;;;;;15.48;78.40;100403.31;5038361;28;20492;-72
2021/04/10 10:00:05;;;;;;;14.07;12.77;;;;;;;15.30;79.61;100405.72;5033721;28;20442;-74
2021/04/10 10:02:53;;;;;;;15.13;13.63;;;;;;;15.23;80.19;100401.94;5046890;28;20464;-73
2021/04/10 10:05:42;;;;;;;12.37;11.33;;;;;;;15.25;80.56;100407.88;5056392;28;20452;-73
2021/04/10 10:08:33;;;;;;;14.43;13.13;;;;;;;15.22;79.90;100399.44;5052571;28;20503;-72
2021/04/10 10:11:21;;;;;;;14.63;13.33;;;;;;;15.24;81.69;100398.38;5054007;28;20437;-73
2021/04/10 10:14:08;;;;;;;15.63;14.07;;;;;;;15.21;80.52;100400.41;5052865;28;20515;-72
2021/04/10 10:17:08;;;;;;;15.80;14.50;;;;;;;15.10;80.83;100403.91;5052782;28;20894;-73
2021/04/10 10:20:08;;;;;;;17.23;14.90;;;;;;;14.92;81.10;100400.22;5053464;28;20594;-72
2021/04/10 10:22:55;;;;;;;15.10;13.90;;;;;;;14.60;81.92;100405.44;5033174;28;20462;-72
2021/04/10 10:25:43;;;;;;;15.50;14.10;;;;;;;14.35;83.57;100396.16;5032396;28;20509;-72
2021/04/10 10:28:30;;;;;;;15.57;14.20;;;;;;;14.28;85.24;100397.59;5042048;28;20491;-72
2021/04/10 10:31:20;;;;;;;14.80;13.50;;;;;;;14.20;85.48;100394.75;5043601;28;20528;-72
2021/04/10 10:34:08;;;;;;;14.70;13.40;;;;;;;14.00;86.23;100385.88;5041590;28;20576;-72
2021/04/10 10:36:56;;;;;;;15.10;13.70;;;;;;;13.89;86.27;100378.91;5042387;28;20542;-72
2021/04/10 10:39:44;;;;;;;14.90;13.60;;;;;;;13.75;88.05;100381.78;5042502;28;20452;-72
2021/04/10 10:42:31;;;;;;;14.87;13.67;;;;;;;13.79;88.55;100385.78;5042699;28;20921;-72
2021/04/10 10:45:18;;;;;;;15.10;13.60;;;;;;;13.88;89.09;100376.44;5041756;28;20539;-72
2021/04/10 10:48:20;;;;;;;14.80;13.40;;;;;;;14.06;87.49;100379.38;5041787;28;20546;-72
2021/04/10 10:51:10;;;;;;;15.30;13.70;;;;;;;14.26;87.96;100376.81;5042115;28;20590;-73
2021/04/10 10:53:56;;;;;;;15.33;13.83;;;;;;;14.21;88.01;100380.75;5041434;28;20496;-72
2021/04/10 10:56:44;;;;;;;15.07;13.77;;;;;;;14.03;88.70;100366.53;5042608;28;20446;-72
2021/04/10 10:59:31;;;;;;;14.70;13.50;;;;;;;13.78;89.77;100370.25;5041909;28;20842;-72
2021/04/10 11:02:19;;;;;;;16.00;14.60;;;;;;;13.44;91.03;100367.66;5041050;28;20449;-72
2021/04/10 11:05:10;;;;;;;15.70;14.30;;;;;;;13.12;92.97;100364.06;5040720;28;20903;-72
2021/04/10 11:07:57;;;;;;;17.57;15.87;;;;;;;12.95;95.09;100360.09;5042664;28;20471;-72
2021/04/10 11:10:45;;;;;;;16.97;15.20;;;;;;;12.92;97.06;100357.72;5042378;28;20944;-72
2021/04/10 11:13:33;;;;;;;15.40;14.00;;;;;;;12.89;98.00;100359.72;5041894;28;20886;-72
2021/04/10 11:16:20;;;;;;;17.97;16.27;;;;;;;12.81;98.57;100343.84;5040367;28;20450;-73
2021/04/10 11:19:07;;;;;;;18.33;16.53;;;;;;;12.80;99.48;100344.78;5040403;28;20525;-73
2021/04/10 11:21:56;;;;;;;15.87;14.40;;;;;;;12.77;99.70;100343.22;5042517;28;20901;-73
2021/04/10 11:24:45;;;;;;;17.10;15.40;;;;;;;12.72;100.00;100340.13;5040531;28;21014;-73
2021/04/10 11:27:34;;;;;;;17.33;15.63;;;;;;;12.77;100.00;100337.19;5051378;28;20453;-73
2021/04/10 11:30:21;;;;;;;17.80;16.17;;;;;;;12.81;100.00;100336.03;5049125;28;20436;-72
2021/04/10 11:33:31;;;;;;;17.40;15.80;;;;;;;12.77;100.00;100331.97;5048306;28;20500;-72
2021/04/10 11:36:18;;;;;;;17.20;15.60;;;;;;;12.78;100.00;100326.66;5048942;28;20495;-72
2021/04/10 11:39:06;;;;;;;17.60;16.10;;;;;;;12.82;100.00;100322.03;5045904;28;20527;-73
2021/04/10 11:41:53;;;;;;;17.90;16.20;;;;;;;12.83;100.00;100318.50;5047751;28;20817;-72
2021/04/10 11:44:40;;;;;;;18.50;16.70;;;;;;;12.72;100.00;100316.69;5052714;28;20441;-73
2021/04/10 11:47:29;;;;;;;18.00;16.50;;;;;;;12.60;100.00;100315.84;5050726;28;20444;-73
2021/04/10 11:50:20;;;;;;;20.17;18.43;;;;;;;12.61;100.00;100314.06;5049542;28;20452;-73
2021/04/10 11:53:13;;;;;;;22.00;19.70;;;;;;;12.53;100.00;100308.59;5051993;28;21077;-73
2021/04/10 11:56:01;;;;;;;21.60;19.40;;;;;;;12.48;100.00;100308.94;5045438;28;20961;-73
2021/04/10 11:59:00;;;;;;;19.73;17.70;;;;;;;12.52;100.00;100314.72;5046074;28;20448;-73
2021/04/10 12:01:49;;;;;;;19.97;18.23;;;;;;;12.45;100.00;100319.56;5045346;28;20477;-73
2021/04/10 12:04:38;;;;;;;19.93;17.87;;;;;;;12.35;100.00;100318.56;5051061;28;20967;-72
2021/04/10 12:07:24;;;;;;;20.07;18.07;;;;;;;12.29;100.00;100311.22;5050484;28;20792;-72
2021/04/10 12:10:11;;;;;;;20.67;18.67;;;;;;;12.23;100.00;100309.06;5045377;28;20849;-72
2021/04/10 12:12:59;;;;;;;21.70;19.50;;;;;;;12.15;100.00;100301.00;5046084;28;20837;-72
2021/04/10 12:15:54;;;;;;;19.80;17.90;;;;;;;12.09;100.00;100293.66;5049086;28;20462;-74
2021/04/10 12:18:41;;;;;;;20.37;18.43;;;;;;;12.27;100.00;100292.31;5045211;28;20795;-72
2021/04/10 12:21:28;;;;;;;21.53;18.80;;;;;;;12.52;100.00;100289.53;5045555;28;20454;-72
2021/04/10 12:24:15;;;;;;;20.30;18.20;;;;;;;12.71;100.00;100283.78;5043986;28;20471;-73
2021/04/10 12:27:02;;;;;;;19.50;17.67;;;;;;;12.90;100.00;100278.84;5050998;28;20951;-72
2021/04/10 12:29:50;;;;;;;21.20;17.60;;;;;;;12.98;100.00;100270.47;5048744;28;20554;-73
2021/04/10 12:32:37;;;;;;;21.07;18.90;;;;;;;12.92;100.00;100273.53;5044253;28;20483;-72
2021/04/10 12:35:24;;;;;;;20.20;18.10;;;;;;;12.89;100.00;100274.59;5048438;28;20452;-74
2021/04/10 12:38:11;;;;;;;19.37;17.60;;;;;;;12.94;100.00;100264.63;5046852;28;20581;-73
2021/04/10 12:40:58;;;;;;;19.60;17.80;;;;;;;12.84;100.00;100268.06;5044851;28;20445;-73
2021/04/10 12:43:45;;;;;;;18.63;16.83;;;;;;;12.78;100.00;100258.94;5048805;28;20465;-74
2021/04/10 12:46:33;;;;;;;17.17;15.57;;;;;;;12.82;100.00;100254.31;5050917;28;20889;-77